createdAt,value
2022-11-09T00:01:30.139Z,10.18
2022-11-09T00:04:00.129Z,11.82
2022-11-09T00:06:29.906Z,13.65
2022-11-09T00:09:05.759Z,11.23
2022-11-09T00:11:37.673Z,15.40
2022-11-09T00:14:06.449Z,14.27
2022-11-09T00:16:35.539Z,13.05
2022-11-09T00:19:04.275Z,11.65
2022-11-09T00:21:32.995Z,10.38
2022-11-09T00:24:02.719Z,13.57
2022-11-09T00:26:31.383Z,8.60
2022-11-09T00:29:00.958Z,8.88
2022-11-09T00:31:29.560Z,9.18
2022-11-09T00:33:58.480Z,10.35
2022-11-09T00:36:29.114Z,12.25
2022-11-09T00:38:58.893Z,15.23
2022-11-09T00:41:29.913Z,18.45
2022-11-09T00:43:58.272Z,13.03
2022-11-09T00:46:27.638Z,11.60
2022-11-09T00:48:56.872Z,10.48
2022-11-09T00:51:26.456Z,9.82
2022-11-09T00:53:57.352Z,9.63
2022-11-09T00:56:26.509Z,11.23
2022-11-09T00:58:56.720Z,11.27
2022-11-09T01:01:25.892Z,8.52
2022-11-09T01:03:54.711Z,11.27
2022-11-09T01:06:26.664Z,13.37
2022-11-09T01:08:55.252Z,10.20
2022-11-09T01:11:24.771Z,9.10
2022-11-09T01:14:00.464Z,9.15
2022-11-09T01:16:30.665Z,8.35
2022-11-09T01:19:00.114Z,10.83
2022-11-09T01:21:29.463Z,9.10
2022-11-09T01:24:01.725Z,9.43
2022-11-09T01:26:31.000Z,10.87
2022-11-09T01:29:00.837Z,8.25
2022-11-09T01:31:29.523Z,8.37
2022-11-09T01:33:58.448Z,8.77
2022-11-09T01:36:26.879Z,8.67
2022-11-09T01:38:55.775Z,8.90
2022-11-09T01:41:29.529Z,8.83
2022-11-09T01:44:08.860Z,9.95
2022-11-09T01:46:47.434Z,9.35
2022-11-09T01:49:22.182Z,11.25
2022-11-09T01:51:54.900Z,9.77
2022-11-09T01:54:27.889Z,12.00
2022-11-09T01:57:01.085Z,11.97
2022-11-09T01:59:35.061Z,13.60
2022-11-09T02:02:05.531Z,16.77
2022-11-09T02:04:39.643Z,12.17
2022-11-09T02:07:11.911Z,12.57
2022-11-09T02:09:46.561Z,14.93
2022-11-09T02:12:17.178Z,9.70
2022-11-09T02:14:50.370Z,9.20
2022-11-09T02:17:20.368Z,12.80
2022-11-09T02:19:48.836Z,11.50
2022-11-09T02:22:19.795Z,8.77
2022-11-09T02:24:50.842Z,9.85
2022-11-09T02:27:23.264Z,8.97
2022-11-09T02:29:52.314Z,10.57
2022-11-09T02:32:24.564Z,10.37
2022-11-09T02:34:55.125Z,12.23
2022-11-09T02:37:30.116Z,9.83
2022-11-09T02:40:01.730Z,9.73
2022-11-09T02:42:30.413Z,10.53
2022-11-09T02:45:01.367Z,9.13
2022-11-09T02:47:29.801Z,8.60
2022-11-09T02:50:00.376Z,8.30
2022-11-09T02:52:30.213Z,10.33
2022-11-09T02:54:59.569Z,11.73
2022-11-09T02:57:28.475Z,7.50
2022-11-09T02:59:58.198Z,7.47
2022-11-09T03:02:26.830Z,7.55
2022-11-09T03:04:56.158Z,7.30
2022-11-09T03:07:25.143Z,9.57
2022-11-09T03:09:55.122Z,8.60
2022-11-09T03:12:32.486Z,8.38
2022-11-09T03:15:09.085Z,10.80
2022-11-09T03:17:42.326Z,8.55
2022-11-09T03:20:12.200Z,10.47
2022-11-09T03:22:42.113Z,9.83
2022-11-09T03:25:12.307Z,9.63
2022-11-09T03:27:42.158Z,12.77
2022-11-09T03:30:11.614Z,11.13
2022-11-09T03:32:42.636Z,9.93
2022-11-09T03:35:13.132Z,10.27
2022-11-09T03:37:42.442Z,15.17
2022-11-09T03:40:13.967Z,11.53
2022-11-09T03:42:46.011Z,10.63
2022-11-09T03:45:15.190Z,10.73
2022-11-09T03:47:44.174Z,8.80
2022-11-09T03:50:14.602Z,10.50
2022-11-09T03:52:45.548Z,11.77
2022-11-09T03:55:16.481Z,13.50
2022-11-09T03:57:46.053Z,11.07
2022-11-09T04:00:18.310Z,10.07
2022-11-09T04:02:46.902Z,11.47
2022-11-09T04:05:16.792Z,12.70
2022-11-09T04:07:49.403Z,9.30
2022-11-09T04:10:21.226Z,13.93
2022-11-09T04:12:49.962Z,9.93
2022-11-09T04:15:18.980Z,11.23
2022-11-09T04:17:56.266Z,11.33
2022-11-09T04:20:24.714Z,14.43
2022-11-09T04:22:57.028Z,9.00
2022-11-09T04:25:27.268Z,11.93
2022-11-09T04:27:57.212Z,10.07
2022-11-09T04:30:28.005Z,14.33
2022-11-09T04:32:57.479Z,15.03
2022-11-09T04:35:27.135Z,11.93
2022-11-09T04:37:56.496Z,14.30
2022-11-09T04:40:27.645Z,10.50
2022-11-09T04:42:57.179Z,10.07
2022-11-09T04:45:25.536Z,9.80
2022-11-09T04:47:59.127Z,12.93
2022-11-09T04:50:31.525Z,11.33
2022-11-09T04:53:19.400Z,11.73
2022-11-09T04:55:50.104Z,8.67
2022-11-09T04:58:23.801Z,11.40
2022-11-09T05:00:54.774Z,10.37
2022-11-09T05:03:23.447Z,11.63
2022-11-09T05:05:52.683Z,12.17
2022-11-09T05:08:21.078Z,9.47
2022-11-09T05:10:51.664Z,9.53
2022-11-09T05:13:20.225Z,7.17
2022-11-09T05:15:49.077Z,11.10
2022-11-09T05:18:17.483Z,10.33
2022-11-09T05:20:46.583Z,13.53
2022-11-09T05:23:33.203Z,11.00
2022-11-09T05:26:03.274Z,11.27
2022-11-09T05:28:32.592Z,12.93
2022-11-09T05:31:01.008Z,11.63
2022-11-09T05:33:30.046Z,13.83
2022-11-09T05:35:59.253Z,15.10
2022-11-09T05:38:28.620Z,11.17
2022-11-09T05:40:57.052Z,11.83
2022-11-09T05:43:27.639Z,10.00
2022-11-09T05:45:56.375Z,12.87
2022-11-09T05:48:25.314Z,12.33
2022-11-09T05:50:54.523Z,14.30
2022-11-09T05:53:26.226Z,13.40
2022-11-09T05:55:55.052Z,10.03
2022-11-09T05:58:23.803Z,8.67
2022-11-09T06:00:53.599Z,13.57
2022-11-09T06:03:22.358Z,11.60
2022-11-09T06:05:51.087Z,15.50
2022-11-09T06:08:19.961Z,14.60
2022-11-09T06:10:48.882Z,12.90
2022-11-09T06:13:17.580Z,13.73
2022-11-09T06:15:56.244Z,12.47
2022-11-09T06:18:25.488Z,12.47
2022-11-09T06:20:54.367Z,10.20
2022-11-09T06:23:26.182Z,10.87
2022-11-09T06:25:54.897Z,9.47
2022-11-09T06:28:23.910Z,8.60
2022-11-09T06:30:52.331Z,11.07
2022-11-09T06:33:23.089Z,9.57
2022-11-09T06:35:56.170Z,7.70
2022-11-09T06:38:27.126Z,10.23
2022-11-09T06:40:57.269Z,8.70
2022-11-09T06:43:26.343Z,10.57
2022-11-09T06:45:55.593Z,12.20
2022-11-09T06:48:25.553Z,11.83
2022-11-09T06:50:54.467Z,12.93
2022-11-09T06:53:23.865Z,10.60
2022-11-09T06:55:53.209Z,12.13
2022-11-09T06:58:22.505Z,14.57
2022-11-09T07:00:51.084Z,11.30
2022-11-09T07:03:21.747Z,13.50
2022-11-09T07:05:53.283Z,13.77
2022-11-09T07:08:22.495Z,12.23
2022-11-09T07:10:50.935Z,14.37
2022-11-09T07:13:19.713Z,9.80
2022-11-09T07:15:54.196Z,9.83
2022-11-09T07:18:23.073Z,9.97
2022-11-09T07:20:53.133Z,8.77
2022-11-09T07:23:22.636Z,8.00
2022-11-09T07:25:51.275Z,10.87
2022-11-09T07:28:20.327Z,10.73
2022-11-09T07:30:51.808Z,12.13
2022-11-09T07:33:23.320Z,9.87
2022-11-09T07:35:54.616Z,9.27
2022-11-09T07:38:23.016Z,11.80
2022-11-09T07:40:52.375Z,14.57
2022-11-09T07:43:21.527Z,12.73
2022-11-09T07:45:53.242Z,11.20
2022-11-09T07:48:21.832Z,12.13
2022-11-09T07:50:50.774Z,15.27
2022-11-09T07:53:21.449Z,12.33
2022-11-09T07:55:58.265Z,11.57
2022-11-09T07:58:26.994Z,8.63
2022-11-09T08:00:55.759Z,9.90
2022-11-09T08:03:25.773Z,11.97
2022-11-09T08:05:54.635Z,12.73
2022-11-09T08:08:24.413Z,11.20
2022-11-09T08:10:54.008Z,10.33
2022-11-09T08:13:22.829Z,14.07
2022-11-09T08:15:52.280Z,13.70
2022-11-09T08:18:23.644Z,14.53
2022-11-09T08:20:52.301Z,11.93
2022-11-09T08:23:22.417Z,11.03
2022-11-09T08:25:52.978Z,11.03
2022-11-09T08:28:22.473Z,12.87
2022-11-09T08:30:57.911Z,18.93
2022-11-09T08:33:28.007Z,11.70
2022-11-09T08:35:56.935Z,11.27
2022-11-09T08:38:25.566Z,11.07
2022-11-09T08:41:00.014Z,12.13
2022-11-09T08:43:28.955Z,11.77
2022-11-09T08:45:57.329Z,10.03
2022-11-09T08:48:26.518Z,10.98
2022-11-09T08:50:56.372Z,8.80
2022-11-09T08:53:26.527Z,9.83
2022-11-09T08:55:56.111Z,10.80
2022-11-09T08:58:26.267Z,7.73
2022-11-09T09:00:55.110Z,8.20
2022-11-09T09:03:23.583Z,9.52
2022-11-09T09:05:52.859Z,10.40
2022-11-09T09:08:23.256Z,9.00
2022-11-09T09:10:53.258Z,8.50
2022-11-09T09:13:23.117Z,7.80
2022-11-09T09:15:52.817Z,7.65
2022-11-09T09:18:22.764Z,9.50
2022-11-09T09:20:52.041Z,8.98
2022-11-09T09:23:20.403Z,9.40
2022-11-09T09:25:49.789Z,9.45
2022-11-09T09:28:18.952Z,9.00
2022-11-09T09:30:47.449Z,8.00
2022-11-09T09:33:19.058Z,8.80
2022-11-09T09:35:47.432Z,11.10
2022-11-09T09:38:16.554Z,12.45
2022-11-09T09:40:59.500Z,11.20
2022-11-09T09:43:34.553Z,9.40
2022-11-09T09:46:08.865Z,9.73
2022-11-09T09:48:42.732Z,10.95
2022-11-09T09:51:17.886Z,11.48
2022-11-09T09:53:51.359Z,9.32
2022-11-09T09:56:22.899Z,8.90
2022-11-09T09:59:00.430Z,9.73
2022-11-09T10:01:36.571Z,11.52
2022-11-09T10:04:16.922Z,8.50
2022-11-09T10:07:00.498Z,10.00
2022-11-09T10:09:46.133Z,9.75
2022-11-09T10:12:24.450Z,9.93
2022-11-09T10:15:13.948Z,9.18
2022-11-09T10:17:53.510Z,7.80
2022-11-09T10:20:39.912Z,8.40
2022-11-09T10:23:28.925Z,9.90
2022-11-09T10:26:06.881Z,7.47
2022-11-09T10:29:09.684Z,7.85
2022-11-09T10:31:34.990Z,11.95
2022-11-09T10:34:14.263Z,8.25
2022-11-09T10:36:48.559Z,8.18
2022-11-09T10:39:18.886Z,6.32
2022-11-09T10:42:05.823Z,6.95
2022-11-09T10:44:53.710Z,7.97
2022-11-09T10:47:49.720Z,9.13
2022-11-09T10:50:40.150Z,7.65
2022-11-09T10:53:29.604Z,11.02
2022-11-09T10:56:21.829Z,6.20
2022-11-09T10:59:45.146Z,6.93
2022-11-09T11:02:45.648Z,10.82
2022-11-09T11:05:35.917Z,8.25
2022-11-09T11:08:26.541Z,7.70
2022-11-09T11:11:36.438Z,6.30
2022-11-09T11:14:30.966Z,9.07
2022-11-09T11:17:26.516Z,7.60
2022-11-09T11:20:29.036Z,5.65
2022-11-09T11:23:19.240Z,6.07
2022-11-09T11:26:33.318Z,7.38
2022-11-09T11:29:37.429Z,6.90
2022-11-09T11:32:25.069Z,8.20
2022-11-09T11:35:17.196Z,11.15
2022-11-09T11:38:21.296Z,5.20
2022-11-09T11:41:32.749Z,7.85
2022-11-09T11:44:43.241Z,12.68
2022-11-09T11:47:38.389Z,5.53
2022-11-09T11:50:36.864Z,5.57
2022-11-09T11:53:43.561Z,5.65
2022-11-09T11:56:37.291Z,8.52
2022-11-09T11:59:54.422Z,8.65
2022-11-09T12:03:03.493Z,9.45
2022-11-09T12:06:04.124Z,4.32
2022-11-09T12:09:09.087Z,5.93
2022-11-09T12:12:08.569Z,8.27
2022-11-09T12:15:15.338Z,9.60
2022-11-09T12:18:14.961Z,10.63
2022-11-09T12:21:14.075Z,5.40
2022-11-09T12:24:16.486Z,8.88
2022-11-09T12:27:32.469Z,7.90
2022-11-09T12:30:24.577Z,6.95
2022-11-09T12:33:16.793Z,7.40
2022-11-09T12:36:13.382Z,5.85
2022-11-09T12:39:05.069Z,7.60
2022-11-09T12:41:57.318Z,9.73
2022-11-09T12:44:49.310Z,9.80
2022-11-09T12:47:42.952Z,8.23
2022-11-09T12:50:30.564Z,12.27
2022-11-09T12:53:19.569Z,9.18
2022-11-09T12:56:11.201Z,10.68
2022-11-09T12:59:23.675Z,9.15
2022-11-09T13:02:23.635Z,10.32
2022-11-09T13:05:30.442Z,10.65
2022-11-09T13:08:21.629Z,9.40
2022-11-09T13:11:12.395Z,8.13
2022-11-09T13:14:33.332Z,6.45
2022-11-09T13:18:04.504Z,5.85
2022-11-09T13:20:58.475Z,6.20
2022-11-09T13:24:03.879Z,5.72
2022-11-09T13:27:00.097Z,7.93
2022-11-09T13:29:56.047Z,5.15
2022-11-09T13:33:25.095Z,5.63
2022-11-09T13:36:20.795Z,9.43
2022-11-09T13:39:39.642Z,8.02
2022-11-09T13:42:32.171Z,7.30
2022-11-09T13:45:34.305Z,6.65
2022-11-09T13:48:40.674Z,8.48
2022-11-09T13:51:45.036Z,10.98
2022-11-09T13:54:33.641Z,6.70
2022-11-09T13:57:23.932Z,9.35
2022-11-09T14:00:18.868Z,8.05
2022-11-09T14:03:19.158Z,8.52
2022-11-09T14:06:07.810Z,8.00
2022-11-09T14:08:55.629Z,7.80
2022-11-09T14:12:09.828Z,6.90
2022-11-09T14:15:14.998Z,7.47
2022-11-09T14:18:16.103Z,7.95
2022-11-09T14:21:25.906Z,6.60
2022-11-09T14:24:19.879Z,7.50
2022-11-09T14:27:15.608Z,5.93
2022-11-09T14:30:03.146Z,7.88
2022-11-09T14:32:54.427Z,10.13
2022-11-09T14:35:41.275Z,7.60
2022-11-09T14:38:32.971Z,7.65
2022-11-09T14:41:22.948Z,7.43
2022-11-09T14:44:17.863Z,8.07
2022-11-09T14:47:06.614Z,9.35
2022-11-09T14:49:54.566Z,7.00
2022-11-09T14:52:41.821Z,6.13
2022-11-09T14:55:42.397Z,7.57
2022-11-09T14:58:31.286Z,6.43
2022-11-09T15:01:24.521Z,5.28
2022-11-09T15:04:16.866Z,6.18
2022-11-09T15:07:06.061Z,6.72
2022-11-09T15:09:57.074Z,9.93
2022-11-09T15:12:50.649Z,7.70
2022-11-09T15:15:39.248Z,6.57
2022-11-09T15:18:33.847Z,7.35
2022-11-09T15:21:35.042Z,7.85
2022-11-09T15:24:23.238Z,9.52
2022-11-09T15:27:30.631Z,6.13
2022-11-09T15:30:35.174Z,9.32
2022-11-09T15:33:29.272Z,9.10
2022-11-09T15:36:35.135Z,6.90
2022-11-09T15:39:23.795Z,6.65
2022-11-09T15:42:12.757Z,9.57
2022-11-09T15:45:00.805Z,8.55
2022-11-09T15:47:54.336Z,7.10
2022-11-09T15:50:41.594Z,8.77
2022-11-09T15:53:29.425Z,9.52
2022-11-09T15:56:19.148Z,8.57
2022-11-09T15:59:07.860Z,8.02
2022-11-09T16:01:55.034Z,8.23
2022-11-09T16:04:43.801Z,7.97
2022-11-09T16:07:30.967Z,8.25
2022-11-09T16:10:20.261Z,7.70
2022-11-09T16:13:08.114Z,7.18
2022-11-09T16:16:02.945Z,5.82
2022-11-09T16:18:50.062Z,7.70
2022-11-09T16:21:38.707Z,6.30
2022-11-09T16:24:25.922Z,7.20
2022-11-09T16:27:35.362Z,9.65
2022-11-09T16:30:21.805Z,7.63
2022-11-09T16:33:09.574Z,7.13
2022-11-09T16:36:00.010Z,6.38
2022-11-09T16:38:50.452Z,6.25
2022-11-09T16:41:40.875Z,5.22
2022-11-09T16:44:32.806Z,7.45
2022-11-09T16:47:22.256Z,9.88
2022-11-09T16:50:09.674Z,9.82
2022-11-09T16:52:56.374Z,10.93
2022-11-09T16:55:44.946Z,9.50
2022-11-09T16:58:32.031Z,6.30
2022-11-09T17:01:23.182Z,4.88
2022-11-09T17:04:10.987Z,4.95
2022-11-09T17:06:58.452Z,17.10
2022-11-09T17:09:45.668Z,14.73
2022-11-09T17:12:34.303Z,10.18
2022-11-09T17:15:21.597Z,16.23
2022-11-09T17:18:09.970Z,12.23
2022-11-09T17:20:56.919Z,10.32
2022-11-09T17:23:44.279Z,15.23
2022-11-09T17:26:32.655Z,18.77
2022-11-09T17:29:21.102Z,19.60
2022-11-09T17:32:10.658Z,23.33
2022-11-09T17:34:57.955Z,18.92
2022-11-09T17:37:44.700Z,27.58
2022-11-09T17:40:31.960Z,18.83
2022-11-09T17:43:19.067Z,20.98
2022-11-09T17:46:10.439Z,19.92
2022-11-09T17:48:56.985Z,20.25
2022-11-09T17:51:44.127Z,19.13
2022-11-09T17:54:36.789Z,15.40
2022-11-09T17:57:24.834Z,14.27
2022-11-09T18:00:13.119Z,12.05
2022-11-09T18:03:01.722Z,13.85
2022-11-09T18:05:48.683Z,15.50
2022-11-09T18:08:36.355Z,15.27
2022-11-09T18:11:23.286Z,17.92
2022-11-09T18:14:11.557Z,17.33
2022-11-09T18:17:01.203Z,19.17
2022-11-09T18:19:49.631Z,14.38
2022-11-09T18:22:36.646Z,12.02
2022-11-09T18:25:23.758Z,13.63
2022-11-09T18:28:13.498Z,13.85
2022-11-09T18:31:01.688Z,20.23
2022-11-09T18:33:49.093Z,15.43
2022-11-09T18:36:37.644Z,35.85
2022-11-09T18:39:26.334Z,31.13
2022-11-09T18:42:13.552Z,23.17
2022-11-09T18:45:00.648Z,24.02
2022-11-09T18:47:49.595Z,17.58
2022-11-09T18:50:39.021Z,20.75
2022-11-09T18:53:29.072Z,20.08
2022-11-09T18:56:19.472Z,14.85
2022-11-09T18:59:06.491Z,17.20
2022-11-09T19:01:53.575Z,21.88
2022-11-09T19:04:41.153Z,17.55
2022-11-09T19:07:28.838Z,18.73
2022-11-09T19:10:17.332Z,15.23
2022-11-09T19:13:04.868Z,11.18
2022-11-09T19:15:57.138Z,12.32
2022-11-09T19:18:45.138Z,13.50
2022-11-09T19:21:38.105Z,13.50
2022-11-09T19:24:26.932Z,12.48
2022-11-09T19:27:15.079Z,12.07
2022-11-09T19:30:07.964Z,11.63
2022-11-09T19:32:56.611Z,9.77
2022-11-09T19:35:43.302Z,13.05
2022-11-09T19:38:30.438Z,9.68
2022-11-09T19:41:17.345Z,8.73
2022-11-09T19:44:07.158Z,8.77
2022-11-09T19:46:53.982Z,10.68
2022-11-09T19:49:41.094Z,13.77
2022-11-09T19:52:28.336Z,12.40
2022-11-09T19:55:15.065Z,15.68
2022-11-09T19:58:02.142Z,12.35
2022-11-09T20:00:50.514Z,14.20
2022-11-09T20:03:38.035Z,14.48
2022-11-09T20:06:26.586Z,14.20
2022-11-09T20:09:13.791Z,13.00
2022-11-09T20:12:18.083Z,10.85
2022-11-09T20:15:06.079Z,14.60
2022-11-09T20:17:54.514Z,14.35
2022-11-09T20:20:42.103Z,16.80
2022-11-09T20:23:29.670Z,13.80
2022-11-09T20:26:16.914Z,13.32
2022-11-09T20:29:05.116Z,10.85
2022-11-09T20:31:52.114Z,9.52
2022-11-09T20:34:40.679Z,28.35
2022-11-09T20:37:28.301Z,24.75
2022-11-09T20:40:15.297Z,12.15
2022-11-09T20:43:02.517Z,12.07
2022-11-09T20:45:49.487Z,12.02
2022-11-09T20:48:54.896Z,10.85
2022-11-09T20:51:44.743Z,12.10
2022-11-09T20:54:32.038Z,9.15
2022-11-09T20:57:19.568Z,8.27
2022-11-09T21:00:08.241Z,11.07
2022-11-09T21:02:55.405Z,11.05
2022-11-09T21:05:46.653Z,12.02
2022-11-09T21:08:38.696Z,9.77
2022-11-09T21:11:28.771Z,9.07
2022-11-09T21:14:15.982Z,8.90
2022-11-09T21:17:03.182Z,9.57
2022-11-09T21:19:50.477Z,10.30
2022-11-09T21:22:57.051Z,9.35
2022-11-09T21:26:03.032Z,10.02
2022-11-09T21:29:08.130Z,8.75
2022-11-09T21:31:55.330Z,10.20
2022-11-09T21:34:43.339Z,9.23
2022-11-09T21:37:30.875Z,11.05
2022-11-09T21:40:18.375Z,10.45
2022-11-09T21:43:06.865Z,8.98
2022-11-09T21:45:54.787Z,8.93
2022-11-09T21:48:41.719Z,8.45
2022-11-09T21:51:29.466Z,9.18
2022-11-09T21:54:16.846Z,8.52
2022-11-09T21:57:03.962Z,10.85
2022-11-09T21:59:52.873Z,10.40
2022-11-09T22:02:39.868Z,12.43
2022-11-09T22:05:26.846Z,9.32
2022-11-09T22:08:14.523Z,9.13
2022-11-09T22:11:06.059Z,11.63
2022-11-09T22:14:10.963Z,9.23
2022-11-09T22:17:00.153Z,10.00
2022-11-09T22:20:04.467Z,8.18
2022-11-09T22:22:52.135Z,7.78
2022-11-09T22:25:42.699Z,8.57
2022-11-09T22:28:33.590Z,9.70
2022-11-09T22:31:20.352Z,8.98
2022-11-09T22:34:09.163Z,11.20
2022-11-09T22:36:56.110Z,12.20
2022-11-09T22:39:47.265Z,10.70
2022-11-09T22:42:35.073Z,9.63
2022-11-09T22:45:22.362Z,10.82
2022-11-09T22:48:09.491Z,10.45
2022-11-09T22:50:58.626Z,10.77
2022-11-09T22:53:49.273Z,12.57
2022-11-09T22:56:37.471Z,11.88
2022-11-09T22:59:24.938Z,12.68
2022-11-09T23:02:11.908Z,14.27
2022-11-09T23:04:58.916Z,11.85
2022-11-09T23:07:47.194Z,10.63
2022-11-09T23:10:34.873Z,11.02
2022-11-09T23:13:22.640Z,9.82
2022-11-09T23:16:12.250Z,11.65
2022-11-09T23:18:59.170Z,10.52
2022-11-09T23:21:46.279Z,10.82
2022-11-09T23:24:52.643Z,9.57
2022-11-09T23:27:39.866Z,10.65
2022-11-09T23:30:27.884Z,10.20
2022-11-09T23:33:15.286Z,9.55
2022-11-09T23:36:04.574Z,10.73
2022-11-09T23:38:51.574Z,11.07
2022-11-09T23:41:40.226Z,12.15
2022-11-09T23:44:27.582Z,11.38
2022-11-09T23:47:14.674Z,12.95
2022-11-09T23:50:02.636Z,11.95
2022-11-09T23:52:49.857Z,13.77
2022-11-09T23:55:36.853Z,12.98
2022-11-09T23:58:26.272Z,11.95
